sensor_id;sensor_type;location;lat;lon;timestamp;temperature;humidity
4701;DHT22;8724;51.272;6.554;2023-05-29T00:00:50;20.40;99.90
4701;DHT22;8724;51.272;6.554;2023-05-29T00:03:19;20.30;99.90
4701;DHT22;8724;51.272;6.554;2023-05-29T00:05:48;20.30;99.90
4701;DHT22;8724;51.272;6.554;2023-05-29T00:08:17;20.40;99.90
4701;DHT22;8724;51.272;6.554;2023-05-29T00:10:46;20.30;99.90
4701;DHT22;8724;51.272;6.554;2023-05-29T00:13:14;20.30;99.90
4701;DHT22;8724;51.272;6.554;2023-05-29T00:15:44;20.20;99.90
4701;DHT22;8724;51.272;6.554;2023-05-29T00:18:12;20.30;99.90
4701;DHT22;8724;51.272;6.554;2023-05-29T00:20:41;20.20;99.90
4701;DHT22;8724;51.272;6.554;2023-05-29T00:23:09;20.20;99.90
4701;DHT22;8724;51.272;6.554;2023-05-29T00:25:38;20.20;99.90
4701;DHT22;8724;51.272;6.554;2023-05-29T00:28:09;20.20;99.90
4701;DHT22;8724;51.272;6.554;2023-05-29T00:30:39;20.10;99.90
4701;DHT22;8724;51.272;6.554;2023-05-29T00:33:09;20.10;99.90
4701;DHT22;8724;51.272;6.554;2023-05-29T00:35:38;20.10;99.90
4701;DHT22;8724;51.272;6.554;2023-05-29T00:38:06;20.10;99.90
4701;DHT22;8724;51.272;6.554;2023-05-29T00:40:35;20.10;99.90
4701;DHT22;8724;51.272;6.554;2023-05-29T00:43:03;20.00;99.90
4701;DHT22;8724;51.272;6.554;2023-05-29T00:45:32;20.00;99.90
4701;DHT22;8724;51.272;6.554;2023-05-29T00:48:03;20.00;99.90
4701;DHT22;8724;51.272;6.554;2023-05-29T00:50:33;20.00;99.90
4701;DHT22;8724;51.272;6.554;2023-05-29T00:53:02;19.90;99.90
4701;DHT22;8724;51.272;6.554;2023-05-29T00:55:32;19.90;99.90
4701;DHT22;8724;51.272;6.554;2023-05-29T00:58:01;19.90;99.90
4701;DHT22;8724;51.272;6.554;2023-05-29T01:00:30;19.70;99.90
4701;DHT22;8724;51.272;6.554;2023-05-29T01:03:00;19.70;99.90
4701;DHT22;8724;51.272;6.554;2023-05-29T01:05:34;19.70;99.90
4701;DHT22;8724;51.272;6.554;2023-05-29T01:08:03;19.70;99.90
4701;DHT22;8724;51.272;6.554;2023-05-29T01:10:32;19.70;99.90
4701;DHT22;8724;51.272;6.554;2023-05-29T01:13:06;19.60;99.90
4701;DHT22;8724;51.272;6.554;2023-05-29T01:15:41;19.60;99.90
4701;DHT22;8724;51.272;6.554;2023-05-29T01:18:24;19.60;99.90
4701;DHT22;8724;51.272;6.554;2023-05-29T01:21:05;19.60;99.90
4701;DHT22;8724;51.272;6.554;2023-05-29T01:24:01;19.50;99.90
4701;DHT22;8724;51.272;6.554;2023-05-29T01:26:48;19.50;99.90
4701;DHT22;8724;51.272;6.554;2023-05-29T01:29:19;19.40;99.90
4701;DHT22;8724;51.272;6.554;2023-05-29T01:31:50;19.10;99.90
4701;DHT22;8724;51.272;6.554;2023-05-29T01:34:19;19.30;99.90
4701;DHT22;8724;51.272;6.554;2023-05-29T01:36:47;19.20;99.90
4701;DHT22;8724;51.272;6.554;2023-05-29T01:39:16;19.20;99.90
4701;DHT22;8724;51.272;6.554;2023-05-29T01:41:48;19.20;99.90
4701;DHT22;8724;51.272;6.554;2023-05-29T01:44:17;19.10;99.90
4701;DHT22;8724;51.272;6.554;2023-05-29T01:46:47;19.10;99.90
4701;DHT22;8724;51.272;6.554;2023-05-29T01:49:16;19.00;99.90
4701;DHT22;8724;51.272;6.554;2023-05-29T01:51:45;19.00;99.90
4701;DHT22;8724;51.272;6.554;2023-05-29T01:54:14;19.00;99.90
4701;DHT22;8724;51.272;6.554;2023-05-29T01:56:43;18.90;99.90
4701;DHT22;8724;51.272;6.554;2023-05-29T01:59:14;18.90;99.90
4701;DHT22;8724;51.272;6.554;2023-05-29T02:01:44;18.90;99.90
4701;DHT22;8724;51.272;6.554;2023-05-29T02:04:12;18.90;99.90
4701;DHT22;8724;51.272;6.554;2023-05-29T02:06:41;18.90;99.90
4701;DHT22;8724;51.272;6.554;2023-05-29T02:09:10;18.90;99.90
4701;DHT22;8724;51.272;6.554;2023-05-29T02:11:38;18.80;99.90
4701;DHT22;8724;51.272;6.554;2023-05-29T02:14:11;18.80;99.90
4701;DHT22;8724;51.272;6.554;2023-05-29T02:16:41;18.80;99.90
4701;DHT22;8724;51.272;6.554;2023-05-29T02:19:11;18.80;99.90
4701;DHT22;8724;51.272;6.554;2023-05-29T02:21:40;18.80;99.90
4701;DHT22;8724;51.272;6.554;2023-05-29T02:24:08;18.70;99.90
4701;DHT22;8724;51.272;6.554;2023-05-29T02:26:37;18.70;99.90
4701;DHT22;8724;51.272;6.554;2023-05-29T02:29:05;18.70;99.90
4701;DHT22;8724;51.272;6.554;2023-05-29T02:31:34;18.60;99.90
4701;DHT22;8724;51.272;6.554;2023-05-29T02:34:06;18.60;99.90
4701;DHT22;8724;51.272;6.554;2023-05-29T02:36:34;18.60;99.90
4701;DHT22;8724;51.272;6.554;2023-05-29T02:39:04;18.80;99.90
4701;DHT22;8724;51.272;6.554;2023-05-29T02:41:33;18.50;99.90
4701;DHT22;8724;51.272;6.554;2023-05-29T02:44:02;18.50;99.90
4701;DHT22;8724;51.272;6.554;2023-05-29T02:46:30;18.40;99.90
4701;DHT22;8724;51.272;6.554;2023-05-29T02:48:59;18.40;99.90
4701;DHT22;8724;51.272;6.554;2023-05-29T02:51:30;18.40;99.90
4701;DHT22;8724;51.272;6.554;2023-05-29T02:53:59;18.40;99.90
4701;DHT22;8724;51.272;6.554;2023-05-29T02:56:27;18.30;99.90
4701;DHT22;8724;51.272;6.554;2023-05-29T02:58:56;18.30;99.90
4701;DHT22;8724;51.272;6.554;2023-05-29T03:01:25;18.30;99.90
4701;DHT22;8724;51.272;6.554;2023-05-29T03:03:55;18.30;99.90
4701;DHT22;8724;51.272;6.554;2023-05-29T03:06:25;18.30;99.90
4701;DHT22;8724;51.272;6.554;2023-05-29T03:08:55;18.30;99.90
4701;DHT22;8724;51.272;6.554;2023-05-29T03:11:23;18.30;99.90
4701;DHT22;8724;51.272;6.554;2023-05-29T03:13:52;18.30;99.90
4701;DHT22;8724;51.272;6.554;2023-05-29T03:16:20;18.30;99.90
4701;DHT22;8724;51.272;6.554;2023-05-29T03:18:49;18.30;99.90
4701;DHT22;8724;51.272;6.554;2023-05-29T03:21:20;18.30;99.90
4701;DHT22;8724;51.272;6.554;2023-05-29T03:23:48;18.20;99.90
4701;DHT22;8724;51.272;6.554;2023-05-29T03:26:20;18.30;99.90
4701;DHT22;8724;51.272;6.554;2023-05-29T03:28:50;18.20;99.90
4701;DHT22;8724;51.272;6.554;2023-05-29T03:31:19;18.20;99.90
4701;DHT22;8724;51.272;6.554;2023-05-29T03:33:49;18.20;99.90
4701;DHT22;8724;51.272;6.554;2023-05-29T03:36:26;18.20;99.90
4701;DHT22;8724;51.272;6.554;2023-05-29T03:38:55;18.20;99.90
4701;DHT22;8724;51.272;6.554;2023-05-29T03:41:25;18.20;99.90
4701;DHT22;8724;51.272;6.554;2023-05-29T03:43:54;18.20;99.90
4701;DHT22;8724;51.272;6.554;2023-05-29T03:46:25;18.20;99.90
4701;DHT22;8724;51.272;6.554;2023-05-29T03:48:54;18.20;99.90
4701;DHT22;8724;51.272;6.554;2023-05-29T03:51:23;18.20;99.90
4701;DHT22;8724;51.272;6.554;2023-05-29T03:53:54;18.20;99.90
4701;DHT22;8724;51.272;6.554;2023-05-29T03:56:24;18.10;99.90
4701;DHT22;8724;51.272;6.554;2023-05-29T03:58:53;18.10;99.90
4701;DHT22;8724;51.272;6.554;2023-05-29T04:01:22;18.10;99.90
4701;DHT22;8724;51.272;6.554;2023-05-29T04:03:50;18.10;99.90
4701;DHT22;8724;51.272;6.554;2023-05-29T04:06:19;18.00;99.90
4701;DHT22;8724;51.272;6.554;2023-05-29T04:08:48;18.00;99.90
4701;DHT22;8724;51.272;6.554;2023-05-29T04:11:17;18.00;99.90
4701;DHT22;8724;51.272;6.554;2023-05-29T04:13:49;17.90;99.90
4701;DHT22;8724;51.272;6.554;2023-05-29T04:16:18;17.50;99.90
4701;DHT22;8724;51.272;6.554;2023-05-29T04:18:47;17.90;99.90
4701;DHT22;8724;51.272;6.554;2023-05-29T04:21:24;17.90;99.90
4701;DHT22;8724;51.272;6.554;2023-05-29T04:23:54;17.80;99.90
4701;DHT22;8724;51.272;6.554;2023-05-29T04:26:22;17.80;99.90
4701;DHT22;8724;51.272;6.554;2023-05-29T04:28:53;17.80;99.90
4701;DHT22;8724;51.272;6.554;2023-05-29T04:31:25;17.80;99.90
4701;DHT22;8724;51.272;6.554;2023-05-29T04:33:55;17.80;99.90
4701;DHT22;8724;51.272;6.554;2023-05-29T04:36:26;17.80;99.90
4701;DHT22;8724;51.272;6.554;2023-05-29T04:39:07;17.70;99.90
4701;DHT22;8724;51.272;6.554;2023-05-29T04:41:36;17.70;99.90
4701;DHT22;8724;51.272;6.554;2023-05-29T04:44:08;17.70;99.90
4701;DHT22;8724;51.272;6.554;2023-05-29T04:46:44;17.70;99.90
4701;DHT22;8724;51.272;6.554;2023-05-29T04:49:15;17.70;99.90
4701;DHT22;8724;51.272;6.554;2023-05-29T04:51:44;17.70;99.90
4701;DHT22;8724;51.272;6.554;2023-05-29T04:54:13;17.70;99.90
4701;DHT22;8724;51.272;6.554;2023-05-29T04:56:42;17.70;99.90
4701;DHT22;8724;51.272;6.554;2023-05-29T04:59:13;17.70;99.90
4701;DHT22;8724;51.272;6.554;2023-05-29T05:01:42;17.70;99.90
4701;DHT22;8724;51.272;6.554;2023-05-29T05:04:12;17.70;99.90
4701;DHT22;8724;51.272;6.554;2023-05-29T05:06:41;17.70;99.90
4701;DHT22;8724;51.272;6.554;2023-05-29T05:09:13;17.70;99.90
4701;DHT22;8724;51.272;6.554;2023-05-29T05:11:42;17.70;99.90
4701;DHT22;8724;51.272;6.554;2023-05-29T05:14:11;17.60;99.90
4701;DHT22;8724;51.272;6.554;2023-05-29T05:16:40;17.70;99.90
4701;DHT22;8724;51.272;6.554;2023-05-29T05:19:10;17.60;99.90
4701;DHT22;8724;51.272;6.554;2023-05-29T05:21:41;17.60;99.90
4701;DHT22;8724;51.272;6.554;2023-05-29T05:24:16;17.60;99.90
4701;DHT22;8724;51.272;6.554;2023-05-29T05:26:53;17.60;99.90
4701;DHT22;8724;51.272;6.554;2023-05-29T05:29:29;17.60;99.90
4701;DHT22;8724;51.272;6.554;2023-05-29T05:32:05;17.60;99.90
4701;DHT22;8724;51.272;6.554;2023-05-29T05:34:55;17.50;99.90
4701;DHT22;8724;51.272;6.554;2023-05-29T05:37:27;17.50;99.90
4701;DHT22;8724;51.272;6.554;2023-05-29T05:40:16;17.50;99.90
4701;DHT22;8724;51.272;6.554;2023-05-29T05:43:07;17.50;99.90
4701;DHT22;8724;51.272;6.554;2023-05-29T05:46:03;17.50;99.90
4701;DHT22;8724;51.272;6.554;2023-05-29T05:48:59;17.50;99.90
4701;DHT22;8724;51.272;6.554;2023-05-29T05:51:34;17.50;99.90
4701;DHT22;8724;51.272;6.554;2023-05-29T05:54:04;17.50;99.90
4701;DHT22;8724;51.272;6.554;2023-05-29T05:56:42;17.50;99.90
4701;DHT22;8724;51.272;6.554;2023-05-29T05:59:23;17.50;99.90
4701;DHT22;8724;51.272;6.554;2023-05-29T06:01:53;17.50;99.90
4701;DHT22;8724;51.272;6.554;2023-05-29T06:04:21;17.50;99.90
4701;DHT22;8724;51.272;6.554;2023-05-29T06:06:50;17.50;99.90
4701;DHT22;8724;51.272;6.554;2023-05-29T06:09:19;17.50;99.90
4701;DHT22;8724;51.272;6.554;2023-05-29T06:11:51;17.50;99.90
4701;DHT22;8724;51.272;6.554;2023-05-29T06:14:19;17.50;99.90
4701;DHT22;8724;51.272;6.554;2023-05-29T06:16:48;17.50;99.90
4701;DHT22;8724;51.272;6.554;2023-05-29T06:19:17;17.60;99.90
4701;DHT22;8724;51.272;6.554;2023-05-29T06:21:55;17.60;99.90
4701;DHT22;8724;51.272;6.554;2023-05-29T06:24:26;17.60;99.90
4701;DHT22;8724;51.272;6.554;2023-05-29T06:26:58;17.60;99.90
4701;DHT22;8724;51.272;6.554;2023-05-29T06:29:26;17.60;99.90
4701;DHT22;8724;51.272;6.554;2023-05-29T06:31:55;17.60;99.90
4701;DHT22;8724;51.272;6.554;2023-05-29T06:34:23;17.60;99.90
4701;DHT22;8724;51.272;6.554;2023-05-29T06:36:52;17.60;99.90
4701;DHT22;8724;51.272;6.554;2023-05-29T06:39:21;17.60;99.90
4701;DHT22;8724;51.272;6.554;2023-05-29T06:41:50;17.60;99.90
4701;DHT22;8724;51.272;6.554;2023-05-29T06:44:19;17.70;99.90
4701;DHT22;8724;51.272;6.554;2023-05-29T06:46:48;17.70;99.90
4701;DHT22;8724;51.272;6.554;2023-05-29T06:49:17;17.70;99.90
4701;DHT22;8724;51.272;6.554;2023-05-29T06:51:46;17.60;99.90
4701;DHT22;8724;51.272;6.554;2023-05-29T06:54:23;17.60;99.90
4701;DHT22;8724;51.272;6.554;2023-05-29T06:56:51;17.60;99.90
4701;DHT22;8724;51.272;6.554;2023-05-29T06:59:39;17.70;99.90
4701;DHT22;8724;51.272;6.554;2023-05-29T07:02:08;17.70;99.90
4701;DHT22;8724;51.272;6.554;2023-05-29T07:04:38;17.70;99.90
4701;DHT22;8724;51.272;6.554;2023-05-29T07:07:06;17.70;99.90
4701;DHT22;8724;51.272;6.554;2023-05-29T07:09:36;17.70;99.90
4701;DHT22;8724;51.272;6.554;2023-05-29T07:12:06;17.80;99.90
4701;DHT22;8724;51.272;6.554;2023-05-29T07:14:35;17.80;99.90
4701;DHT22;8724;51.272;6.554;2023-05-29T07:17:05;17.80;99.90
4701;DHT22;8724;51.272;6.554;2023-05-29T07:19:33;17.90;99.90
4701;DHT22;8724;51.272;6.554;2023-05-29T07:22:06;17.90;99.90
4701;DHT22;8724;51.272;6.554;2023-05-29T07:24:34;17.90;99.90
4701;DHT22;8724;51.272;6.554;2023-05-29T07:27:05;17.90;99.90
4701;DHT22;8724;51.272;6.554;2023-05-29T07:29:34;17.90;99.90
4701;DHT22;8724;51.272;6.554;2023-05-29T07:32:04;17.90;99.90
4701;DHT22;8724;51.272;6.554;2023-05-29T07:34:33;17.90;99.90
4701;DHT22;8724;51.272;6.554;2023-05-29T07:37:03;17.90;99.90
4701;DHT22;8724;51.272;6.554;2023-05-29T07:39:34;17.90;99.90
4701;DHT22;8724;51.272;6.554;2023-05-29T07:42:32;17.90;99.90
4701;DHT22;8724;51.272;6.554;2023-05-29T07:45:00;18.00;99.90
4701;DHT22;8724;51.272;6.554;2023-05-29T07:47:30;17.90;99.90
4701;DHT22;8724;51.272;6.554;2023-05-29T07:49:59;17.90;99.90
4701;DHT22;8724;51.272;6.554;2023-05-29T07:52:28;17.80;99.90
4701;DHT22;8724;51.272;6.554;2023-05-29T07:54:57;17.90;99.90
4701;DHT22;8724;51.272;6.554;2023-05-29T07:57:26;17.80;99.90
4701;DHT22;8724;51.272;6.554;2023-05-29T07:59:58;17.80;99.90
4701;DHT22;8724;51.272;6.554;2023-05-29T08:02:30;17.90;99.90
4701;DHT22;8724;51.272;6.554;2023-05-29T08:05:34;17.80;99.90
4701;DHT22;8724;51.272;6.554;2023-05-29T08:08:08;17.90;99.90
4701;DHT22;8724;51.272;6.554;2023-05-29T08:10:40;17.90;99.90
4701;DHT22;8724;51.272;6.554;2023-05-29T08:13:08;17.90;99.90
4701;DHT22;8724;51.272;6.554;2023-05-29T08:15:38;17.90;99.90
4701;DHT22;8724;51.272;6.554;2023-05-29T08:18:08;17.90;99.90
4701;DHT22;8724;51.272;6.554;2023-05-29T08:20:36;17.90;99.90
4701;DHT22;8724;51.272;6.554;2023-05-29T08:23:05;17.90;99.90
4701;DHT22;8724;51.272;6.554;2023-05-29T08:25:34;17.90;99.90
4701;DHT22;8724;51.272;6.554;2023-05-29T08:28:02;17.90;99.90
4701;DHT22;8724;51.272;6.554;2023-05-29T08:30:31;17.90;99.90
4701;DHT22;8724;51.272;6.554;2023-05-29T08:32:59;17.90;99.90
4701;DHT22;8724;51.272;6.554;2023-05-29T08:35:30;18.00;99.90
4701;DHT22;8724;51.272;6.554;2023-05-29T08:37:58;18.00;99.90
4701;DHT22;8724;51.272;6.554;2023-05-29T08:40:27;18.00;99.90
4701;DHT22;8724;51.272;6.554;2023-05-29T08:42:57;18.00;99.90
4701;DHT22;8724;51.272;6.554;2023-05-29T08:45:29;18.10;99.90
4701;DHT22;8724;51.272;6.554;2023-05-29T08:47:58;18.10;99.90
4701;DHT22;8724;51.272;6.554;2023-05-29T08:50:30;18.10;99.90
4701;DHT22;8724;51.272;6.554;2023-05-29T08:52:58;18.10;99.90
4701;DHT22;8724;51.272;6.554;2023-05-29T08:55:27;18.10;99.90
4701;DHT22;8724;51.272;6.554;2023-05-29T08:57:56;18.10;99.90
4701;DHT22;8724;51.272;6.554;2023-05-29T09:00:25;18.10;99.90
4701;DHT22;8724;51.272;6.554;2023-05-29T09:02:56;18.20;99.90
4701;DHT22;8724;51.272;6.554;2023-05-29T09:05:26;18.20;99.90
4701;DHT22;8724;51.272;6.554;2023-05-29T09:07:57;18.30;99.90
4701;DHT22;8724;51.272;6.554;2023-05-29T09:10:26;18.30;99.90
4701;DHT22;8724;51.272;6.554;2023-05-29T09:12:54;18.30;99.90
4701;DHT22;8724;51.272;6.554;2023-05-29T09:15:23;18.30;99.90
4701;DHT22;8724;51.272;6.554;2023-05-29T09:17:53;18.40;99.90
4701;DHT22;8724;51.272;6.554;2023-05-29T09:20:22;18.40;99.90
4701;DHT22;8724;51.272;6.554;2023-05-29T09:22:57;18.40;99.90
4701;DHT22;8724;51.272;6.554;2023-05-29T09:25:27;18.40;99.90
4701;DHT22;8724;51.272;6.554;2023-05-29T09:27:58;18.40;99.90
4701;DHT22;8724;51.272;6.554;2023-05-29T09:30:38;18.50;99.90
4701;DHT22;8724;51.272;6.554;2023-05-29T09:33:08;18.50;99.90
4701;DHT22;8724;51.272;6.554;2023-05-29T09:35:38;18.50;99.90
4701;DHT22;8724;51.272;6.554;2023-05-29T09:38:11;18.50;99.90
4701;DHT22;8724;51.272;6.554;2023-05-29T09:41:04;18.50;99.90
4701;DHT22;8724;51.272;6.554;2023-05-29T09:43:34;18.50;99.90
4701;DHT22;8724;51.272;6.554;2023-05-29T09:46:06;18.50;99.90
4701;DHT22;8724;51.272;6.554;2023-05-29T09:48:35;18.50;99.90
4701;DHT22;8724;51.272;6.554;2023-05-29T09:51:05;18.60;99.90
4701;DHT22;8724;51.272;6.554;2023-05-29T09:53:40;18.60;99.90
4701;DHT22;8724;51.272;6.554;2023-05-29T09:56:10;18.60;99.90
4701;DHT22;8724;51.272;6.554;2023-05-29T09:58:41;18.70;99.90
4701;DHT22;8724;51.272;6.554;2023-05-29T10:01:14;18.70;99.90
4701;DHT22;8724;51.272;6.554;2023-05-29T10:03:45;18.70;99.90
4701;DHT22;8724;51.272;6.554;2023-05-29T10:06:17;18.70;99.90
4701;DHT22;8724;51.272;6.554;2023-05-29T10:08:50;18.70;99.90
4701;DHT22;8724;51.272;6.554;2023-05-29T10:11:23;18.60;99.90
4701;DHT22;8724;51.272;6.554;2023-05-29T10:13:57;18.70;99.90
4701;DHT22;8724;51.272;6.554;2023-05-29T10:16:27;18.70;99.90
4701;DHT22;8724;51.272;6.554;2023-05-29T10:18:57;18.60;99.90
4701;DHT22;8724;51.272;6.554;2023-05-29T10:21:29;18.30;99.90
4701;DHT22;8724;51.272;6.554;2023-05-29T10:24:01;18.90;99.90
4701;DHT22;8724;51.272;6.554;2023-05-29T10:26:36;18.70;99.90
4701;DHT22;8724;51.272;6.554;2023-05-29T10:29:11;18.70;99.90
4701;DHT22;8724;51.272;6.554;2023-05-29T10:31:58;18.80;99.90
4701;DHT22;8724;51.272;6.554;2023-05-29T10:34:33;18.80;99.90
4701;DHT22;8724;51.272;6.554;2023-05-29T10:37:15;18.80;99.90
4701;DHT22;8724;51.272;6.554;2023-05-29T10:39:48;18.90;99.90
4701;DHT22;8724;51.272;6.554;2023-05-29T10:42:42;18.90;99.90
4701;DHT22;8724;51.272;6.554;2023-05-29T10:48:41;19.00;99.90
4701;DHT22;8724;51.272;6.554;2023-05-29T10:51:27;19.00;99.90
4701;DHT22;8724;51.272;6.554;2023-05-29T10:53:56;19.30;99.90
4701;DHT22;8724;51.272;6.554;2023-05-29T10:56:29;19.10;99.90
4701;DHT22;8724;51.272;6.554;2023-05-29T10:58:59;19.10;99.90
4701;DHT22;8724;51.272;6.554;2023-05-29T11:01:30;19.10;99.90
4701;DHT22;8724;51.272;6.554;2023-05-29T11:04:26;19.10;99.90
4701;DHT22;8724;51.272;6.554;2023-05-29T11:06:56;19.50;99.90
4701;DHT22;8724;51.272;6.554;2023-05-29T11:09:30;19.20;99.90
4701;DHT22;8724;51.272;6.554;2023-05-29T11:12:17;19.20;99.90
4701;DHT22;8724;51.272;6.554;2023-05-29T11:15:04;19.30;99.90
4701;DHT22;8724;51.272;6.554;2023-05-29T11:17:43;19.30;99.90
4701;DHT22;8724;51.272;6.554;2023-05-29T11:20:37;19.30;99.90
4701;DHT22;8724;51.272;6.554;2023-05-29T11:23:15;19.30;99.90
4701;DHT22;8724;51.272;6.554;2023-05-29T11:25:46;19.40;99.90
4701;DHT22;8724;51.272;6.554;2023-05-29T11:28:16;19.40;99.90
4701;DHT22;8724;51.272;6.554;2023-05-29T11:30:46;19.50;99.90
4701;DHT22;8724;51.272;6.554;2023-05-29T11:33:22;19.50;99.90
4701;DHT22;8724;51.272;6.554;2023-05-29T11:35:57;19.60;99.90
4701;DHT22;8724;51.272;6.554;2023-05-29T11:38:26;19.60;99.90
4701;DHT22;8724;51.272;6.554;2023-05-29T11:40:55;19.70;99.90
4701;DHT22;8724;51.272;6.554;2023-05-29T11:43:26;19.70;99.90
4701;DHT22;8724;51.272;6.554;2023-05-29T11:45:55;19.70;99.90
4701;DHT22;8724;51.272;6.554;2023-05-29T11:48:24;19.80;99.90
4701;DHT22;8724;51.272;6.554;2023-05-29T11:50:52;19.80;99.90
4701;DHT22;8724;51.272;6.554;2023-05-29T11:53:21;19.80;99.90
4701;DHT22;8724;51.272;6.554;2023-05-29T11:55:50;19.80;99.90
4701;DHT22;8724;51.272;6.554;2023-05-29T11:58:21;19.80;99.90
4701;DHT22;8724;51.272;6.554;2023-05-29T12:00:51;19.90;99.90
4701;DHT22;8724;51.272;6.554;2023-05-29T12:03:19;19.90;99.90
4701;DHT22;8724;51.272;6.554;2023-05-29T12:05:49;19.90;99.90
4701;DHT22;8724;51.272;6.554;2023-05-29T12:08:21;20.00;99.90
4701;DHT22;8724;51.272;6.554;2023-05-29T12:10:52;20.00;99.90
4701;DHT22;8724;51.272;6.554;2023-05-29T12:13:21;20.00;99.90
4701;DHT22;8724;51.272;6.554;2023-05-29T12:15:54;20.00;99.90
4701;DHT22;8724;51.272;6.554;2023-05-29T12:18:23;20.00;99.90
4701;DHT22;8724;51.272;6.554;2023-05-29T12:20:57;20.00;99.90
4701;DHT22;8724;51.272;6.554;2023-05-29T12:23:27;20.00;99.90
4701;DHT22;8724;51.272;6.554;2023-05-29T12:25:55;20.10;99.90
4701;DHT22;8724;51.272;6.554;2023-05-29T12:28:25;20.10;99.90
4701;DHT22;8724;51.272;6.554;2023-05-29T12:30:59;20.10;99.90
4701;DHT22;8724;51.272;6.554;2023-05-29T12:33:29;20.10;99.90
4701;DHT22;8724;51.272;6.554;2023-05-29T12:36:03;20.20;99.90
4701;DHT22;8724;51.272;6.554;2023-05-29T12:38:32;20.10;99.90
4701;DHT22;8724;51.272;6.554;2023-05-29T12:41:00;20.20;99.90
4701;DHT22;8724;51.272;6.554;2023-05-29T12:43:28;20.20;99.90
4701;DHT22;8724;51.272;6.554;2023-05-29T12:45:57;20.30;99.90
4701;DHT22;8724;51.272;6.554;2023-05-29T12:48:31;20.30;99.90
4701;DHT22;8724;51.272;6.554;2023-05-29T12:51:04;20.30;99.90
4701;DHT22;8724;51.272;6.554;2023-05-29T12:53:35;20.30;99.90
4701;DHT22;8724;51.272;6.554;2023-05-29T12:56:03;20.40;99.90
4701;DHT22;8724;51.272;6.554;2023-05-29T12:58:32;20.40;99.90
4701;DHT22;8724;51.272;6.554;2023-05-29T13:01:00;20.30;99.90
4701;DHT22;8724;51.272;6.554;2023-05-29T13:03:30;20.40;99.90
4701;DHT22;8724;51.272;6.554;2023-05-29T13:05:59;20.40;99.90
4701;DHT22;8724;51.272;6.554;2023-05-29T13:08:28;20.40;99.90
4701;DHT22;8724;51.272;6.554;2023-05-29T13:10:56;20.50;99.90
4701;DHT22;8724;51.272;6.554;2023-05-29T13:13:24;20.50;99.90
4701;DHT22;8724;51.272;6.554;2023-05-29T13:15:53;20.50;99.90
4701;DHT22;8724;51.272;6.554;2023-05-29T13:18:21;20.50;99.90
4701;DHT22;8724;51.272;6.554;2023-05-29T13:20:51;20.50;99.90
4701;DHT22;8724;51.272;6.554;2023-05-29T13:23:20;20.50;99.90
4701;DHT22;8724;51.272;6.554;2023-05-29T13:25:49;20.60;99.90
4701;DHT22;8724;51.272;6.554;2023-05-29T13:28:17;20.60;99.90
4701;DHT22;8724;51.272;6.554;2023-05-29T13:30:46;20.60;99.90
4701;DHT22;8724;51.272;6.554;2023-05-29T13:33:14;20.60;99.90
4701;DHT22;8724;51.272;6.554;2023-05-29T13:35:42;20.60;99.90
4701;DHT22;8724;51.272;6.554;2023-05-29T13:38:12;20.60;99.90
4701;DHT22;8724;51.272;6.554;2023-05-29T13:40:41;20.60;99.90
4701;DHT22;8724;51.272;6.554;2023-05-29T13:43:09;20.60;99.90
4701;DHT22;8724;51.272;6.554;2023-05-29T13:45:38;20.70;99.90
4701;DHT22;8724;51.272;6.554;2023-05-29T13:48:07;20.60;99.90
4701;DHT22;8724;51.272;6.554;2023-05-29T13:50:36;20.60;99.90
4701;DHT22;8724;51.272;6.554;2023-05-29T13:53:05;20.90;99.90
4701;DHT22;8724;51.272;6.554;2023-05-29T13:55:35;20.70;99.90
4701;DHT22;8724;51.272;6.554;2023-05-29T13:58:04;20.70;99.90
4701;DHT22;8724;51.272;6.554;2023-05-29T14:00:33;20.70;99.90
4701;DHT22;8724;51.272;6.554;2023-05-29T14:03:02;20.70;99.90
4701;DHT22;8724;51.272;6.554;2023-05-29T14:05:31;20.70;99.90
4701;DHT22;8724;51.272;6.554;2023-05-29T14:08:00;20.80;99.90
4701;DHT22;8724;51.272;6.554;2023-05-29T14:10:29;20.80;99.90
4701;DHT22;8724;51.272;6.554;2023-05-29T14:13:00;20.80;99.90
4701;DHT22;8724;51.272;6.554;2023-05-29T14:15:29;20.80;99.90
4701;DHT22;8724;51.272;6.554;2023-05-29T14:17:58;20.80;99.90
4701;DHT22;8724;51.272;6.554;2023-05-29T14:20:27;20.90;99.90
4701;DHT22;8724;51.272;6.554;2023-05-29T14:22:55;20.90;99.90
4701;DHT22;8724;51.272;6.554;2023-05-29T14:25:24;20.80;99.90
4701;DHT22;8724;51.272;6.554;2023-05-29T14:27:52;20.90;99.90
4701;DHT22;8724;51.272;6.554;2023-05-29T14:30:22;20.90;99.90
4701;DHT22;8724;51.272;6.554;2023-05-29T14:32:52;20.90;99.90
4701;DHT22;8724;51.272;6.554;2023-05-29T14:35:20;20.90;99.90
4701;DHT22;8724;51.272;6.554;2023-05-29T14:37:49;20.90;99.90
4701;DHT22;8724;51.272;6.554;2023-05-29T14:40:17;20.90;99.90
4701;DHT22;8724;51.272;6.554;2023-05-29T14:42:46;20.90;99.90
4701;DHT22;8724;51.272;6.554;2023-05-29T14:45:16;20.90;99.90
4701;DHT22;8724;51.272;6.554;2023-05-29T14:47:46;21.00;99.90
4701;DHT22;8724;51.272;6.554;2023-05-29T14:50:14;21.00;99.90
4701;DHT22;8724;51.272;6.554;2023-05-29T14:52:43;21.00;99.90
4701;DHT22;8724;51.272;6.554;2023-05-29T14:55:12;21.00;99.90
4701;DHT22;8724;51.272;6.554;2023-05-29T14:57:42;21.00;99.90
4701;DHT22;8724;51.272;6.554;2023-05-29T15:00:11;21.00;99.90
4701;DHT22;8724;51.272;6.554;2023-05-29T15:02:40;21.10;99.90
4701;DHT22;8724;51.272;6.554;2023-05-29T15:05:10;21.10;99.90
4701;DHT22;8724;51.272;6.554;2023-05-29T15:07:38;21.20;99.90
4701;DHT22;8724;51.272;6.554;2023-05-29T15:10:07;21.40;99.90
4701;DHT22;8724;51.272;6.554;2023-05-29T15:12:36;21.50;99.90
4701;DHT22;8724;51.272;6.554;2023-05-29T15:15:05;21.60;99.90
4701;DHT22;8724;51.272;6.554;2023-05-29T15:17:34;21.70;99.90
4701;DHT22;8724;51.272;6.554;2023-05-29T15:20:04;21.90;99.90
4701;DHT22;8724;51.272;6.554;2023-05-29T15:22:34;22.10;99.90
4701;DHT22;8724;51.272;6.554;2023-05-29T15:25:03;22.20;99.90
4701;DHT22;8724;51.272;6.554;2023-05-29T15:27:31;22.40;99.90
4701;DHT22;8724;51.272;6.554;2023-05-29T15:30:11;22.60;99.90
4701;DHT22;8724;51.272;6.554;2023-05-29T15:32:41;22.90;99.90
4701;DHT22;8724;51.272;6.554;2023-05-29T15:35:11;23.30;99.90
4701;DHT22;8724;51.272;6.554;2023-05-29T15:37:42;23.80;99.90
4701;DHT22;8724;51.272;6.554;2023-05-29T15:40:12;24.00;99.90
4701;DHT22;8724;51.272;6.554;2023-05-29T15:42:40;24.30;99.60
4701;DHT22;8724;51.272;6.554;2023-05-29T15:45:10;24.60;98.60
4701;DHT22;8724;51.272;6.554;2023-05-29T15:47:39;24.90;98.30
4701;DHT22;8724;51.272;6.554;2023-05-29T15:50:08;25.10;97.90
4701;DHT22;8724;51.272;6.554;2023-05-29T15:52:37;25.50;97.50
4701;DHT22;8724;51.272;6.554;2023-05-29T15:55:22;25.70;96.70
4701;DHT22;8724;51.272;6.554;2023-05-29T15:57:51;25.80;95.60
4701;DHT22;8724;51.272;6.554;2023-05-29T16:00:19;25.80;93.80
4701;DHT22;8724;51.272;6.554;2023-05-29T16:02:48;25.60;91.70
4701;DHT22;8724;51.272;6.554;2023-05-29T16:05:18;25.50;92.00
4701;DHT22;8724;51.272;6.554;2023-05-29T16:07:47;25.50;92.20
4701;DHT22;8724;51.272;6.554;2023-05-29T16:10:16;25.50;90.80
4701;DHT22;8724;51.272;6.554;2023-05-29T16:12:46;25.40;90.70
4701;DHT22;8724;51.272;6.554;2023-05-29T16:15:17;25.30;90.80
4701;DHT22;8724;51.272;6.554;2023-05-29T16:17:47;25.20;91.30
4701;DHT22;8724;51.272;6.554;2023-05-29T16:20:16;25.20;91.80
4701;DHT22;8724;51.272;6.554;2023-05-29T16:22:45;25.20;91.30
4701;DHT22;8724;51.272;6.554;2023-05-29T16:25:13;25.20;90.50
4701;DHT22;8724;51.272;6.554;2023-05-29T16:27:42;25.10;89.80
4701;DHT22;8724;51.272;6.554;2023-05-29T16:30:13;25.10;89.20